sensor_id;sensor_type;location;lat;lon;timestamp;P1;durP1;ratioP1;P2;durP2;ratioP2
35324;SDS011;35135;47.510;19.036;2022-12-07T00:01:22;4.47;;;2.30;;
35324;SDS011;35135;47.510;19.036;2022-12-07T00:03:53;3.77;;;2.70;;
35324;SDS011;35135;47.510;19.036;2022-12-07T00:06:22;3.67;;;3.05;;
35324;SDS011;35135;47.510;19.036;2022-12-07T00:08:48;4.95;;;3.17;;
35324;SDS011;35135;47.510;19.036;2022-12-07T00:11:14;4.85;;;3.47;;
35324;SDS011;35135;47.510;19.036;2022-12-07T00:13:45;4.28;;;2.65;;
35324;SDS011;35135;47.510;19.036;2022-12-07T00:16:13;5.00;;;3.03;;
35324;SDS011;35135;47.510;19.036;2022-12-07T00:18:40;5.90;;;3.05;;
35324;SDS011;35135;47.510;19.036;2022-12-07T00:21:09;3.40;;;2.75;;
35324;SDS011;35135;47.510;19.036;2022-12-07T00:23:36;3.70;;;2.60;;
35324;SDS011;35135;47.510;19.036;2022-12-07T00:26:03;3.92;;;2.70;;
35324;SDS011;35135;47.510;19.036;2022-12-07T00:28:30;5.32;;;3.03;;
35324;SDS011;35135;47.510;19.036;2022-12-07T00:31:02;3.35;;;2.40;;
35324;SDS011;35135;47.510;19.036;2022-12-07T00:33:30;3.75;;;2.80;;
35324;SDS011;35135;47.510;19.036;2022-12-07T00:35:56;3.60;;;2.47;;
35324;SDS011;35135;47.510;19.036;2022-12-07T00:38:22;3.15;;;2.42;;
35324;SDS011;35135;47.510;19.036;2022-12-07T00:40:55;2.65;;;2.40;;
35324;SDS011;35135;47.510;19.036;2022-12-07T00:43:22;3.53;;;2.67;;
35324;SDS011;35135;47.510;19.036;2022-12-07T00:45:48;3.38;;;2.55;;
35324;SDS011;35135;47.510;19.036;2022-12-07T00:48:14;4.47;;;2.75;;
35324;SDS011;35135;47.510;19.036;2022-12-07T00:50:40;3.47;;;2.63;;
35324;SDS011;35135;47.510;19.036;2022-12-07T00:53:05;3.40;;;2.40;;
35324;SDS011;35135;47.510;19.036;2022-12-07T00:55:34;4.63;;;2.80;;
35324;SDS011;35135;47.510;19.036;2022-12-07T00:58:00;3.95;;;2.50;;
35324;SDS011;35135;47.510;19.036;2022-12-07T01:00:26;3.55;;;2.80;;
35324;SDS011;35135;47.510;19.036;2022-12-07T01:02:52;4.35;;;2.70;;
35324;SDS011;35135;47.510;19.036;2022-12-07T01:05:17;3.22;;;2.50;;
35324;SDS011;35135;47.510;19.036;2022-12-07T01:07:43;3.53;;;2.78;;
35324;SDS011;35135;47.510;19.036;2022-12-07T01:10:09;3.55;;;2.70;;
35324;SDS011;35135;47.510;19.036;2022-12-07T01:12:35;3.97;;;3.13;;
35324;SDS011;35135;47.510;19.036;2022-12-07T01:15:00;4.28;;;2.65;;
35324;SDS011;35135;47.510;19.036;2022-12-07T01:17:26;3.55;;;2.75;;
35324;SDS011;35135;47.510;19.036;2022-12-07T01:19:53;3.25;;;2.75;;
35324;SDS011;35135;47.510;19.036;2022-12-07T01:22:18;3.95;;;2.90;;
35324;SDS011;35135;47.510;19.036;2022-12-07T01:24:44;4.82;;;3.00;;
35324;SDS011;35135;47.510;19.036;2022-12-07T01:27:11;4.70;;;3.05;;
35324;SDS011;35135;47.510;19.036;2022-12-07T01:29:37;3.60;;;3.10;;
35324;SDS011;35135;47.510;19.036;2022-12-07T01:32:03;3.33;;;2.67;;
35324;SDS011;35135;47.510;19.036;2022-12-07T01:34:29;3.50;;;2.60;;
35324;SDS011;35135;47.510;19.036;2022-12-07T01:36:54;3.58;;;2.78;;
35324;SDS011;35135;47.510;19.036;2022-12-07T01:39:20;3.55;;;2.83;;
35324;SDS011;35135;47.510;19.036;2022-12-07T01:41:46;3.42;;;2.97;;
35324;SDS011;35135;47.510;19.036;2022-12-07T01:46:58;3.33;;;2.88;;
35324;SDS011;35135;47.510;19.036;2022-12-07T01:49:33;3.88;;;2.83;;
35324;SDS011;35135;47.510;19.036;2022-12-07T01:55:05;5.50;;;2.55;;
35324;SDS011;35135;47.510;19.036;2022-12-07T01:57:34;3.50;;;2.55;;
35324;SDS011;35135;47.510;19.036;2022-12-07T02:00:03;3.97;;;3.28;;
35324;SDS011;35135;47.510;19.036;2022-12-07T02:02:31;3.30;;;2.83;;
35324;SDS011;35135;47.510;19.036;2022-12-07T02:05:00;3.42;;;2.90;;
35324;SDS011;35135;47.510;19.036;2022-12-07T02:07:27;3.03;;;2.53;;
35324;SDS011;35135;47.510;19.036;2022-12-07T02:09:53;3.30;;;3.00;;
35324;SDS011;35135;47.510;19.036;2022-12-07T02:12:19;3.15;;;2.80;;
35324;SDS011;35135;47.510;19.036;2022-12-07T02:14:46;3.58;;;2.70;;
35324;SDS011;35135;47.510;19.036;2022-12-07T02:18:13;3.63;;;2.75;;
35324;SDS011;35135;47.510;19.036;2022-12-07T02:30:40;3.03;;;2.78;;
35324;SDS011;35135;47.510;19.036;2022-12-07T02:33:19;3.35;;;2.90;;
35324;SDS011;35135;47.510;19.036;2022-12-07T02:35:59;3.17;;;2.78;;
35324;SDS011;35135;47.510;19.036;2022-12-07T02:38:50;2.65;;;2.42;;
35324;SDS011;35135;47.510;19.036;2022-12-07T02:41:30;3.40;;;2.70;;
35324;SDS011;35135;47.510;19.036;2022-12-07T02:44:03;3.30;;;2.70;;
35324;SDS011;35135;47.510;19.036;2022-12-07T02:46:35;2.57;;;2.17;;
35324;SDS011;35135;47.510;19.036;2022-12-07T02:49:03;2.97;;;2.65;;
35324;SDS011;35135;47.510;19.036;2022-12-07T02:51:30;3.67;;;2.70;;
35324;SDS011;35135;47.510;19.036;2022-12-07T02:53:56;2.60;;;2.38;;
35324;SDS011;35135;47.510;19.036;2022-12-07T03:07:00;3.20;;;2.70;;
35324;SDS011;35135;47.510;19.036;2022-12-07T03:09:37;2.58;;;2.17;;
35324;SDS011;35135;47.510;19.036;2022-12-07T03:12:52;3.63;;;2.50;;
35324;SDS011;35135;47.510;19.036;2022-12-07T03:18:24;3.35;;;2.35;;
35324;SDS011;35135;47.510;19.036;2022-12-07T03:20:53;2.50;;;2.30;;
35324;SDS011;35135;47.510;19.036;2022-12-07T03:23:22;2.85;;;2.42;;
35324;SDS011;35135;47.510;19.036;2022-12-07T03:25:51;2.70;;;2.50;;
35324;SDS011;35135;47.510;19.036;2022-12-07T03:28:22;2.35;;;2.15;;
35324;SDS011;35135;47.510;19.036;2022-12-07T03:36:41;2.72;;;2.20;;
35324;SDS011;35135;47.510;19.036;2022-12-07T03:41:49;3.05;;;2.38;;
35324;SDS011;35135;47.510;19.036;2022-12-07T03:44:16;2.80;;;2.15;;
35324;SDS011;35135;47.510;19.036;2022-12-07T03:49:22;3.90;;;2.30;;
35324;SDS011;35135;47.510;19.036;2022-12-07T03:54:58;3.63;;;2.22;;
35324;SDS011;35135;47.510;19.036;2022-12-07T03:57:30;2.80;;;2.20;;
35324;SDS011;35135;47.510;19.036;2022-12-07T03:59:58;2.53;;;2.13;;
35324;SDS011;35135;47.510;19.036;2022-12-07T04:02:25;2.55;;;2.17;;
35324;SDS011;35135;47.510;19.036;2022-12-07T04:04:52;3.08;;;2.20;;
35324;SDS011;35135;47.510;19.036;2022-12-07T04:07:18;2.83;;;2.33;;
35324;SDS011;35135;47.510;19.036;2022-12-07T04:09:44;2.60;;;2.40;;
35324;SDS011;35135;47.510;19.036;2022-12-07T04:12:10;2.33;;;2.13;;
35324;SDS011;35135;47.510;19.036;2022-12-07T04:14:35;2.67;;;2.25;;
35324;SDS011;35135;47.510;19.036;2022-12-07T04:17:01;2.85;;;2.47;;
35324;SDS011;35135;47.510;19.036;2022-12-07T04:19:28;2.80;;;2.50;;
35324;SDS011;35135;47.510;19.036;2022-12-07T04:21:55;2.42;;;2.22;;
35324;SDS011;35135;47.510;19.036;2022-12-07T04:24:22;2.05;;;1.80;;
35324;SDS011;35135;47.510;19.036;2022-12-07T04:26:48;3.70;;;2.25;;
35324;SDS011;35135;47.510;19.036;2022-12-07T04:29:14;3.10;;;2.50;;
35324;SDS011;35135;47.510;19.036;2022-12-07T04:31:40;3.33;;;2.15;;
35324;SDS011;35135;47.510;19.036;2022-12-07T04:34:06;2.97;;;2.38;;
35324;SDS011;35135;47.510;19.036;2022-12-07T04:36:33;2.40;;;2.15;;
35324;SDS011;35135;47.510;19.036;2022-12-07T04:38:59;2.33;;;2.13;;
35324;SDS011;35135;47.510;19.036;2022-12-07T04:41:25;2.65;;;2.30;;
35324;SDS011;35135;47.510;19.036;2022-12-07T04:43:57;3.08;;;2.40;;
35324;SDS011;35135;47.510;19.036;2022-12-07T04:46:28;2.45;;;2.25;;
35324;SDS011;35135;47.510;19.036;2022-12-07T04:48:55;2.83;;;2.30;;
35324;SDS011;35135;47.510;19.036;2022-12-07T04:51:22;2.55;;;2.35;;
35324;SDS011;35135;47.510;19.036;2022-12-07T04:53:52;2.97;;;2.30;;
35324;SDS011;35135;47.510;19.036;2022-12-07T04:56:19;3.20;;;2.50;;
35324;SDS011;35135;47.510;19.036;2022-12-07T04:58:45;2.72;;;2.42;;
35324;SDS011;35135;47.510;19.036;2022-12-07T05:01:13;2.50;;;2.30;;
35324;SDS011;35135;47.510;19.036;2022-12-07T05:03:40;3.08;;;2.65;;
35324;SDS011;35135;47.510;19.036;2022-12-07T05:06:06;3.13;;;2.50;;
35324;SDS011;35135;47.510;19.036;2022-12-07T05:08:33;4.40;;;2.90;;
35324;SDS011;35135;47.510;19.036;2022-12-07T05:10:59;3.03;;;2.65;;
35324;SDS011;35135;47.510;19.036;2022-12-07T05:13:25;2.85;;;2.55;;
35324;SDS011;35135;47.510;19.036;2022-12-07T05:15:51;2.53;;;2.28;;
35324;SDS011;35135;47.510;19.036;2022-12-07T05:18:17;2.88;;;2.53;;
35324;SDS011;35135;47.510;19.036;2022-12-07T05:20:43;3.22;;;2.38;;
35324;SDS011;35135;47.510;19.036;2022-12-07T05:23:09;2.90;;;2.60;;
35324;SDS011;35135;47.510;19.036;2022-12-07T05:25:35;2.80;;;2.40;;
35324;SDS011;35135;47.510;19.036;2022-12-07T05:28:01;2.65;;;2.33;;
35324;SDS011;35135;47.510;19.036;2022-12-07T05:30:27;2.97;;;2.40;;
35324;SDS011;35135;47.510;19.036;2022-12-07T05:32:53;2.97;;;2.35;;
35324;SDS011;35135;47.510;19.036;2022-12-07T05:35:19;3.63;;;2.20;;
35324;SDS011;35135;47.510;19.036;2022-12-07T05:37:44;2.95;;;2.65;;
35324;SDS011;35135;47.510;19.036;2022-12-07T05:40:11;2.50;;;2.10;;
35324;SDS011;35135;47.510;19.036;2022-12-07T05:42:38;2.67;;;2.40;;
35324;SDS011;35135;47.510;19.036;2022-12-07T05:45:04;2.55;;;2.22;;
35324;SDS011;35135;47.510;19.036;2022-12-07T05:47:30;3.72;;;2.50;;
35324;SDS011;35135;47.510;19.036;2022-12-07T05:49:56;2.70;;;2.50;;
35324;SDS011;35135;47.510;19.036;2022-12-07T05:52:22;2.75;;;2.28;;
35324;SDS011;35135;47.510;19.036;2022-12-07T05:54:47;3.00;;;2.50;;
35324;SDS011;35135;47.510;19.036;2022-12-07T05:57:13;2.67;;;2.40;;
35324;SDS011;35135;47.510;19.036;2022-12-07T05:59:39;4.05;;;2.50;;
35324;SDS011;35135;47.510;19.036;2022-12-07T06:02:06;2.13;;;1.85;;
35324;SDS011;35135;47.510;19.036;2022-12-07T06:04:35;2.80;;;2.30;;
35324;SDS011;35135;47.510;19.036;2022-12-07T06:07:03;2.58;;;2.22;;
35324;SDS011;35135;47.510;19.036;2022-12-07T06:09:30;2.30;;;2.00;;
35324;SDS011;35135;47.510;19.036;2022-12-07T06:11:56;2.97;;;2.53;;
35324;SDS011;35135;47.510;19.036;2022-12-07T06:14:41;2.28;;;2.08;;
35324;SDS011;35135;47.510;19.036;2022-12-07T06:17:07;3.55;;;2.35;;
35324;SDS011;35135;47.510;19.036;2022-12-07T06:19:33;2.70;;;2.30;;
35324;SDS011;35135;47.510;19.036;2022-12-07T06:22:00;4.65;;;2.30;;
35324;SDS011;35135;47.510;19.036;2022-12-07T06:24:26;5.25;;;2.60;;
35324;SDS011;35135;47.510;19.036;2022-12-07T06:26:52;4.43;;;2.30;;
35324;SDS011;35135;47.510;19.036;2022-12-07T06:29:17;6.28;;;2.80;;
35324;SDS011;35135;47.510;19.036;2022-12-07T06:31:44;5.20;;;2.75;;
35324;SDS011;35135;47.510;19.036;2022-12-07T06:34:11;5.18;;;2.70;;
35324;SDS011;35135;47.510;19.036;2022-12-07T06:36:38;5.43;;;3.03;;
35324;SDS011;35135;47.510;19.036;2022-12-07T06:39:05;4.53;;;2.95;;
35324;SDS011;35135;47.510;19.036;2022-12-07T06:41:31;8.25;;;3.20;;
35324;SDS011;35135;47.510;19.036;2022-12-07T06:43:57;5.18;;;2.65;;
35324;SDS011;35135;47.510;19.036;2022-12-07T06:46:22;5.93;;;2.55;;
35324;SDS011;35135;47.510;19.036;2022-12-07T06:48:48;4.95;;;2.55;;
35324;SDS011;35135;47.510;19.036;2022-12-07T06:51:18;7.28;;;2.80;;
35324;SDS011;35135;47.510;19.036;2022-12-07T06:53:43;11.70;;;4.28;;
35324;SDS011;35135;47.510;19.036;2022-12-07T06:56:09;11.20;;;3.22;;
35324;SDS011;35135;47.510;19.036;2022-12-07T06:58:35;9.10;;;3.03;;
35324;SDS011;35135;47.510;19.036;2022-12-07T07:01:01;8.73;;;2.92;;
35324;SDS011;35135;47.510;19.036;2022-12-07T07:03:27;11.40;;;2.80;;
35324;SDS011;35135;47.510;19.036;2022-12-07T07:05:53;9.88;;;3.42;;
35324;SDS011;35135;47.510;19.036;2022-12-07T07:08:19;6.47;;;2.83;;
35324;SDS011;35135;47.510;19.036;2022-12-07T07:10:44;7.22;;;3.10;;
35324;SDS011;35135;47.510;19.036;2022-12-07T07:13:10;5.95;;;3.08;;
35324;SDS011;35135;47.510;19.036;2022-12-07T07:15:36;6.65;;;2.72;;
35324;SDS011;35135;47.510;19.036;2022-12-07T07:18:03;7.68;;;2.83;;
35324;SDS011;35135;47.510;19.036;2022-12-07T07:20:28;9.10;;;3.42;;
35324;SDS011;35135;47.510;19.036;2022-12-07T07:22:54;7.97;;;5.38;;
35324;SDS011;35135;47.510;19.036;2022-12-07T07:25:20;9.57;;;7.28;;
35324;SDS011;35135;47.510;19.036;2022-12-07T07:27:46;9.32;;;6.68;;
35324;SDS011;35135;47.510;19.036;2022-12-07T07:30:12;9.27;;;6.25;;
35324;SDS011;35135;47.510;19.036;2022-12-07T07:32:38;7.20;;;5.90;;
35324;SDS011;35135;47.510;19.036;2022-12-07T07:35:03;7.95;;;5.60;;
35324;SDS011;35135;47.510;19.036;2022-12-07T07:37:29;8.27;;;5.68;;
35324;SDS011;35135;47.510;19.036;2022-12-07T07:39:55;6.80;;;5.63;;
35324;SDS011;35135;47.510;19.036;2022-12-07T07:42:21;8.40;;;5.65;;
35324;SDS011;35135;47.510;19.036;2022-12-07T07:44:47;11.32;;;5.80;;
35324;SDS011;35135;47.510;19.036;2022-12-07T07:47:12;9.30;;;5.80;;
35324;SDS011;35135;47.510;19.036;2022-12-07T07:49:38;8.07;;;5.28;;
35324;SDS011;35135;47.510;19.036;2022-12-07T07:52:04;9.70;;;5.15;;
35324;SDS011;35135;47.510;19.036;2022-12-07T07:54:30;7.32;;;4.93;;
35324;SDS011;35135;47.510;19.036;2022-12-07T07:56:56;6.80;;;4.53;;
35324;SDS011;35135;47.510;19.036;2022-12-07T07:59:22;6.30;;;4.63;;
35324;SDS011;35135;47.510;19.036;2022-12-07T08:01:48;7.32;;;4.65;;
35324;SDS011;35135;47.510;19.036;2022-12-07T08:04:13;6.72;;;4.95;;
35324;SDS011;35135;47.510;19.036;2022-12-07T08:06:39;7.50;;;4.30;;
35324;SDS011;35135;47.510;19.036;2022-12-07T08:09:07;6.93;;;4.40;;
35324;SDS011;35135;47.510;19.036;2022-12-07T08:11:33;6.97;;;4.43;;
35324;SDS011;35135;47.510;19.036;2022-12-07T08:13:59;6.70;;;4.50;;
35324;SDS011;35135;47.510;19.036;2022-12-07T08:16:25;5.93;;;4.22;;
35324;SDS011;35135;47.510;19.036;2022-12-07T08:18:51;5.88;;;4.18;;
35324;SDS011;35135;47.510;19.036;2022-12-07T08:21:17;6.85;;;4.30;;
35324;SDS011;35135;47.510;19.036;2022-12-07T08:23:43;5.25;;;4.18;;
35324;SDS011;35135;47.510;19.036;2022-12-07T08:26:09;6.45;;;4.38;;
35324;SDS011;35135;47.510;19.036;2022-12-07T08:28:37;7.95;;;4.45;;
35324;SDS011;35135;47.510;19.036;2022-12-07T08:31:04;5.35;;;4.22;;
35324;SDS011;35135;47.510;19.036;2022-12-07T08:33:31;5.85;;;4.22;;
35324;SDS011;35135;47.510;19.036;2022-12-07T08:36:01;6.93;;;4.40;;
35324;SDS011;35135;47.510;19.036;2022-12-07T08:38:27;7.38;;;4.20;;
35324;SDS011;35135;47.510;19.036;2022-12-07T08:40:57;7.13;;;4.40;;
35324;SDS011;35135;47.510;19.036;2022-12-07T08:43:24;5.22;;;4.40;;
35324;SDS011;35135;47.510;19.036;2022-12-07T08:45:51;5.00;;;4.00;;
35324;SDS011;35135;47.510;19.036;2022-12-07T08:48:41;4.75;;;3.90;;
35324;SDS011;35135;47.510;19.036;2022-12-07T08:51:10;6.13;;;4.63;;
35324;SDS011;35135;47.510;19.036;2022-12-07T08:53:37;5.07;;;4.05;;
35324;SDS011;35135;47.510;19.036;2022-12-07T08:56:03;5.35;;;3.83;;
35324;SDS011;35135;47.510;19.036;2022-12-07T08:58:31;4.47;;;3.65;;
35324;SDS011;35135;47.510;19.036;2022-12-07T09:00:57;6.30;;;4.53;;
35324;SDS011;35135;47.510;19.036;2022-12-07T09:03:23;6.13;;;3.88;;
35324;SDS011;35135;47.510;19.036;2022-12-07T09:05:48;4.07;;;3.38;;
35324;SDS011;35135;47.510;19.036;2022-12-07T09:08:14;5.22;;;4.10;;
35324;SDS011;35135;47.510;19.036;2022-12-07T09:10:40;4.53;;;3.70;;
35324;SDS011;35135;47.510;19.036;2022-12-07T09:13:06;7.10;;;3.70;;
35324;SDS011;35135;47.510;19.036;2022-12-07T09:15:32;4.88;;;3.40;;
35324;SDS011;35135;47.510;19.036;2022-12-07T09:17:58;6.32;;;4.38;;
35324;SDS011;35135;47.510;19.036;2022-12-07T09:20:24;4.72;;;3.70;;
35324;SDS011;35135;47.510;19.036;2022-12-07T09:22:49;6.38;;;3.92;;
35324;SDS011;35135;47.510;19.036;2022-12-07T09:25:15;4.78;;;3.67;;
35324;SDS011;35135;47.510;19.036;2022-12-07T09:27:41;6.15;;;3.97;;
35324;SDS011;35135;47.510;19.036;2022-12-07T09:30:07;4.97;;;3.30;;
35324;SDS011;35135;47.510;19.036;2022-12-07T09:32:33;5.10;;;3.95;;
35324;SDS011;35135;47.510;19.036;2022-12-07T09:34:59;4.05;;;3.65;;
35324;SDS011;35135;47.510;19.036;2022-12-07T09:37:24;4.20;;;3.40;;
35324;SDS011;35135;47.510;19.036;2022-12-07T09:39:50;4.28;;;3.60;;
35324;SDS011;35135;47.510;19.036;2022-12-07T09:42:29;4.47;;;3.45;;
35324;SDS011;35135;47.510;19.036;2022-12-07T09:45:42;4.30;;;3.42;;
35324;SDS011;35135;47.510;19.036;2022-12-07T09:50:28;6.45;;;3.22;;
35324;SDS011;35135;47.510;19.036;2022-12-07T09:52:55;5.13;;;3.50;;
35324;SDS011;35135;47.510;19.036;2022-12-07T09:55:39;4.35;;;3.15;;
35324;SDS011;35135;47.510;19.036;2022-12-07T09:58:08;3.60;;;3.10;;
35324;SDS011;35135;47.510;19.036;2022-12-07T10:00:42;4.88;;;3.08;;
35324;SDS011;35135;47.510;19.036;2022-12-07T10:03:08;3.60;;;3.17;;
35324;SDS011;35135;47.510;19.036;2022-12-07T10:05:41;4.22;;;3.22;;
35324;SDS011;35135;47.510;19.036;2022-12-07T10:08:12;4.40;;;3.25;;
35324;SDS011;35135;47.510;19.036;2022-12-07T10:10:38;4.55;;;2.88;;
35324;SDS011;35135;47.510;19.036;2022-12-07T10:20:46;3.10;;;2.80;;
35324;SDS011;35135;47.510;19.036;2022-12-07T10:23:17;4.65;;;3.35;;
35324;SDS011;35135;47.510;19.036;2022-12-07T10:25:43;3.60;;;3.00;;
35324;SDS011;35135;47.510;19.036;2022-12-07T10:28:11;4.47;;;3.05;;
35324;SDS011;35135;47.510;19.036;2022-12-07T10:33:30;4.22;;;2.63;;
35324;SDS011;35135;47.510;19.036;2022-12-07T10:35:59;3.67;;;3.15;;
35324;SDS011;35135;47.510;19.036;2022-12-07T10:38:35;3.17;;;2.63;;
35324;SDS011;35135;47.510;19.036;2022-12-07T10:41:17;3.22;;;2.60;;
35324;SDS011;35135;47.510;19.036;2022-12-07T10:43:51;3.13;;;2.58;;
35324;SDS011;35135;47.510;19.036;2022-12-07T11:05:39;3.38;;;2.58;;
35324;SDS011;35135;47.510;19.036;2022-12-07T11:11:16;4.32;;;2.40;;
35324;SDS011;35135;47.510;19.036;2022-12-07T11:16:24;2.67;;;2.05;;
35324;SDS011;35135;47.510;19.036;2022-12-07T11:29:55;2.95;;;2.30;;
35324;SDS011;35135;47.510;19.036;2022-12-07T11:32:49;2.45;;;2.10;;
35324;SDS011;35135;47.510;19.036;2022-12-07T11:37:49;2.42;;;1.98;;
35324;SDS011;35135;47.510;19.036;2022-12-07T11:40:21;2.93;;;2.23;;
35324;SDS011;35135;47.510;19.036;2022-12-07T11:42:58;3.10;;;2.40;;
35324;SDS011;35135;47.510;19.036;2022-12-07T11:45:37;2.67;;;2.25;;
35324;SDS011;35135;47.510;19.036;2022-12-07T11:48:19;2.50;;;2.25;;
35324;SDS011;35135;47.510;19.036;2022-12-07T11:50:51;2.80;;;2.30;;
35324;SDS011;35135;47.510;19.036;2022-12-07T11:56:19;2.58;;;2.20;;
35324;SDS011;35135;47.510;19.036;2022-12-07T12:03:56;2.78;;;2.28;;
35324;SDS011;35135;47.510;19.036;2022-12-07T12:06:23;2.70;;;2.20;;
35324;SDS011;35135;47.510;19.036;2022-12-07T12:22:21;2.60;;;2.17;;
35324;SDS011;35135;47.510;19.036;2022-12-07T12:24:58;2.30;;;2.10;;
35324;SDS011;35135;47.510;19.036;2022-12-07T12:27:26;2.63;;;2.17;;
35324;SDS011;35135;47.510;19.036;2022-12-07T12:29:56;3.03;;;2.50;;
35324;SDS011;35135;47.510;19.036;2022-12-07T12:32:40;2.08;;;1.88;;
35324;SDS011;35135;47.510;19.036;2022-12-07T12:37:52;2.75;;;1.98;;
35324;SDS011;35135;47.510;19.036;2022-12-07T12:42:53;2.40;;;2.03;;
35324;SDS011;35135;47.510;19.036;2022-12-07T12:45:21;3.05;;;2.58;;
35324;SDS011;35135;47.510;19.036;2022-12-07T12:47:54;2.58;;;2.28;;
35324;SDS011;35135;47.510;19.036;2022-12-07T12:50:38;2.80;;;2.22;;
35324;SDS011;35135;47.510;19.036;2022-12-07T12:53:21;2.75;;;1.90;;
35324;SDS011;35135;47.510;19.036;2022-12-07T13:00:43;3.35;;;2.08;;
35324;SDS011;35135;47.510;19.036;2022-12-07T13:03:28;2.28;;;1.90;;
35324;SDS011;35135;47.510;19.036;2022-12-07T13:08:50;2.40;;;2.03;;
35324;SDS011;35135;47.510;19.036;2022-12-07T13:17:01;2.10;;;1.90;;
35324;SDS011;35135;47.510;19.036;2022-12-07T13:25:41;2.58;;;2.03;;
35324;SDS011;35135;47.510;19.036;2022-12-07T13:28:17;2.20;;;2.00;;
35324;SDS011;35135;47.510;19.036;2022-12-07T13:33:34;3.92;;;2.08;;
35324;SDS011;35135;47.510;19.036;2022-12-07T13:36:00;3.95;;;2.20;;
35324;SDS011;35135;47.510;19.036;2022-12-07T13:38:31;2.90;;;1.92;;
35324;SDS011;35135;47.510;19.036;2022-12-07T13:41:02;2.67;;;1.90;;
35324;SDS011;35135;47.510;19.036;2022-12-07T13:46:11;3.05;;;2.08;;
35324;SDS011;35135;47.510;19.036;2022-12-07T13:48:44;1.70;;;1.50;;
35324;SDS011;35135;47.510;19.036;2022-12-07T13:53:54;2.97;;;2.45;;
35324;SDS011;35135;47.510;19.036;2022-12-07T13:56:33;2.95;;;1.83;;
35324;SDS011;35135;47.510;19.036;2022-12-07T13:59:00;2.55;;;1.60;;
35324;SDS011;35135;47.510;19.036;2022-12-07T14:01:26;5.40;;;2.45;;
35324;SDS011;35135;47.510;19.036;2022-12-07T14:03:55;3.17;;;2.38;;
35324;SDS011;35135;47.510;19.036;2022-12-07T14:06:24;2.95;;;2.03;;
35324;SDS011;35135;47.510;19.036;2022-12-07T14:11:44;4.00;;;2.50;;
35324;SDS011;35135;47.510;19.036;2022-12-07T14:14:13;5.45;;;2.30;;
35324;SDS011;35135;47.510;19.036;2022-12-07T14:16:55;4.13;;;2.30;;
35324;SDS011;35135;47.510;19.036;2022-12-07T14:22:21;3.78;;;2.40;;
35324;SDS011;35135;47.510;19.036;2022-12-07T14:24:49;3.63;;;2.00;;
35324;SDS011;35135;47.510;19.036;2022-12-07T14:27:22;3.88;;;1.90;;
35324;SDS011;35135;47.510;19.036;2022-12-07T14:29:55;2.90;;;2.22;;
35324;SDS011;35135;47.510;19.036;2022-12-07T14:32:24;2.60;;;2.38;;
35324;SDS011;35135;47.510;19.036;2022-12-07T14:37:26;2.83;;;2.25;;
35324;SDS011;35135;47.510;19.036;2022-12-07T14:39:53;2.88;;;2.15;;
35324;SDS011;35135;47.510;19.036;2022-12-07T14:42:18;3.45;;;2.00;;
35324;SDS011;35135;47.510;19.036;2022-12-07T14:44:45;3.00;;;2.08;;
35324;SDS011;35135;47.510;19.036;2022-12-07T14:47:11;3.53;;;2.50;;
35324;SDS011;35135;47.510;19.036;2022-12-07T14:49:36;3.63;;;2.38;;
35324;SDS011;35135;47.510;19.036;2022-12-07T14:52:02;2.70;;;2.10;;
35324;SDS011;35135;47.510;19.036;2022-12-07T14:54:30;2.88;;;2.00;;
35324;SDS011;35135;47.510;19.036;2022-12-07T14:56:57;2.90;;;2.00;;
35324;SDS011;35135;47.510;19.036;2022-12-07T14:59:23;3.55;;;2.20;;
35324;SDS011;35135;47.510;19.036;2022-12-07T15:01:48;3.10;;;2.40;;
35324;SDS011;35135;47.510;19.036;2022-12-07T15:04:14;3.10;;;2.38;;
35324;SDS011;35135;47.510;19.036;2022-12-07T15:06:40;2.40;;;2.10;;
35324;SDS011;35135;47.510;19.036;2022-12-07T15:09:09;2.75;;;2.22;;
35324;SDS011;35135;47.510;19.036;2022-12-07T15:11:36;2.95;;;2.30;;
35324;SDS011;35135;47.510;19.036;2022-12-07T15:14:01;2.75;;;2.45;;
35324;SDS011;35135;47.510;19.036;2022-12-07T15:16:33;3.75;;;2.45;;
35324;SDS011;35135;47.510;19.036;2022-12-07T15:19:00;3.10;;;2.30;;
35324;SDS011;35135;47.510;19.036;2022-12-07T15:21:25;4.63;;;2.38;;
35324;SDS011;35135;47.510;19.036;2022-12-07T15:23:51;6.25;;;2.45;;
35324;SDS011;35135;47.510;19.036;2022-12-07T15:26:16;3.90;;;2.85;;
35324;SDS011;35135;47.510;19.036;2022-12-07T15:28:42;3.22;;;2.78;;
35324;SDS011;35135;47.510;19.036;2022-12-07T15:31:14;3.33;;;2.53;;
35324;SDS011;35135;47.510;19.036;2022-12-07T15:33:41;3.80;;;2.47;;
35324;SDS011;35135;47.510;19.036;2022-12-07T15:36:08;5.07;;;2.78;;
35324;SDS011;35135;47.510;19.036;2022-12-07T15:38:44;4.60;;;2.85;;
35324;SDS011;35135;47.510;19.036;2022-12-07T15:41:09;4.15;;;2.78;;
35324;SDS011;35135;47.510;19.036;2022-12-07T15:43:36;3.15;;;2.75;;
35324;SDS011;35135;47.510;19.036;2022-12-07T15:46:20;3.05;;;2.75;;
35324;SDS011;35135;47.510;19.036;2022-12-07T15:48:46;3.53;;;2.83;;
35324;SDS011;35135;47.510;19.036;2022-12-07T15:51:11;3.80;;;2.60;;
35324;SDS011;35135;47.510;19.036;2022-12-07T15:53:37;3.13;;;2.53;;
35324;SDS011;35135;47.510;19.036;2022-12-07T15:56:06;7.47;;;2.80;;
35324;SDS011;35135;47.510;19.036;2022-12-07T15:58:33;5.15;;;2.63;;
35324;SDS011;35135;47.510;19.036;2022-12-07T16:00:59;3.78;;;2.67;;
35324;SDS011;35135;47.510;19.036;2022-12-07T16:03:24;4.95;;;2.78;;
35324;SDS011;35135;47.510;19.036;2022-12-07T16:05:52;3.95;;;3.15;;
35324;SDS011;35135;47.510;19.036;2022-12-07T16:08:18;6.65;;;2.88;;
35324;SDS011;35135;47.510;19.036;2022-12-07T16:10:44;4.53;;;2.90;;
35324;SDS011;35135;47.510;19.036;2022-12-07T16:13:10;6.28;;;2.97;;
35324;SDS011;35135;47.510;19.036;2022-12-07T16:15:39;4.43;;;2.55;;
35324;SDS011;35135;47.510;19.036;2022-12-07T16:18:06;3.38;;;2.97;;
35324;SDS011;35135;47.510;19.036;2022-12-07T16:20:31;6.13;;;2.80;;
35324;SDS011;35135;47.510;19.036;2022-12-07T16:22:57;4.60;;;2.80;;
35324;SDS011;35135;47.510;19.036;2022-12-07T16:25:23;7.43;;;2.50;;
35324;SDS011;35135;47.510;19.036;2022-12-07T16:27:49;5.22;;;2.50;;
35324;SDS011;35135;47.510;19.036;2022-12-07T16:30:15;7.10;;;3.05;;
35324;SDS011;35135;47.510;19.036;2022-12-07T16:32:41;7.78;;;2.85;;
35324;SDS011;35135;47.510;19.036;2022-12-07T16:35:07;8.65;;;3.10;;
35324;SDS011;35135;47.510;19.036;2022-12-07T16:37:34;4.85;;;2.63;;
35324;SDS011;35135;47.510;19.036;2022-12-07T16:39:59;6.43;;;2.63;;
35324;SDS011;35135;47.510;19.036;2022-12-07T16:42:25;5.82;;;3.20;;
35324;SDS011;35135;47.510;19.036;2022-12-07T16:44:51;4.93;;;2.92;;
35324;SDS011;35135;47.510;19.036;2022-12-07T16:47:17;6.57;;;3.03;;
35324;SDS011;35135;47.510;19.036;2022-12-07T16:49:43;9.85;;;3.30;;
35324;SDS011;35135;47.510;19.036;2022-12-07T16:52:08;7.50;;;3.40;;
35324;SDS011;35135;47.510;19.036;2022-12-07T16:54:35;5.97;;;3.30;;
35324;SDS011;35135;47.510;19.036;2022-12-07T16:57:01;6.30;;;3.47;;
35324;SDS011;35135;47.510;19.036;2022-12-07T16:59:28;9.35;;;4.13;;
35324;SDS011;35135;47.510;19.036;2022-12-07T17:01:53;4.85;;;3.65;;
35324;SDS011;35135;47.510;19.036;2022-12-07T17:04:19;9.93;;;4.07;;
35324;SDS011;35135;47.510;19.036;2022-12-07T17:06:44;10.73;;;4.68;;
35324;SDS011;35135;47.510;19.036;2022-12-07T17:09:10;9.82;;;4.82;;
35324;SDS011;35135;47.510;19.036;2022-12-07T17:11:37;13.63;;;5.80;;
35324;SDS011;35135;47.510;19.036;2022-12-07T17:14:03;16.70;;;5.40;;
35324;SDS011;35135;47.510;19.036;2022-12-07T17:16:47;9.18;;;5.20;;
35324;SDS011;35135;47.510;19.036;2022-12-07T17:19:14;15.70;;;8.40;;